Anson, Maine
Current Conditions -  °F | °C
As of 4:15 PM on Friday 24 Oct 2014 (Local Time) from KWVL Reporting Station
Overcast Overcast  
Wind Chill: 41°   Ceiling: 2100
Heat Index: 46°   Visibility: 10mi
Dew Point: 41°   Wind: 12mph
Humidity: 81%   Direction: 340°NNW
Pressure: 29.63"   Gusts: 16mph
Location:  44.8°N, 69.89°W
Report Text: KWVL 242015Z 34010G14KT 10SM OVC021 08/05 A2963 RMK AO1
Loading
Personal Weather Stations






























Interactive Weather Map
Tropical Storm Tracking
New forecast layout! Learn more

10-Day Weather Forecast

Advertisements
Track Severe Weather on mobile